Time;durP1;ratioP1;P1;durP2;ratioP2;P2;SDS_P1;SDS_P2;PMS_P1;PMS_P2;Temp;Humidity;BMP_temperature;BMP_pressure;BME280_temperature;BME280_humidity;BME280_pressure;Samples;Min_cycle;Max_cycle;Signal;HPM_P1;HPM_P2
2023/08/02 00:01:03;;;;;;;3.50;1.33;;;;;;;15.04;86.32;96410.00;5063468;28;20407;-57
2023/08/02 00:03:29;;;;;;;5.80;1.67;;;;;;;15.01;86.38;96416.06;5062068;28;20045;-57
2023/08/02 00:05:57;;;;;;;4.50;1.23;;;;;;;14.92;86.65;96413.22;5062884;28;20048;-56
2023/08/02 00:08:25;;;;;;;3.35;1.20;;;;;;;14.91;86.86;96415.16;5063064;28;20049;-57
2023/08/02 00:10:52;;;;;;;4.20;1.40;;;;;;;14.85;87.48;96413.66;5064158;28;20040;-57
2023/08/02 00:13:19;;;;;;;3.00;1.10;;;;;;;14.74;88.50;96412.22;5063357;28;20044;-58
2023/08/02 00:15:45;;;;;;;5.00;1.30;;;;;;;14.63;89.45;96417.06;5064376;28;20047;-57
2023/08/02 00:18:12;;;;;;;2.50;1.20;;;;;;;14.66;89.07;96398.19;5063834;28;20052;-57
2023/08/02 00:20:39;;;;;;;4.78;1.45;;;;;;;14.68;89.25;96395.94;5063412;28;20041;-57
2023/08/02 00:23:06;;;;;;;4.20;1.40;;;;;;;14.53;90.30;96399.78;5063381;28;20037;-57
2023/08/02 00:25:33;;;;;;;4.88;2.28;;;;;;;14.28;92.30;96396.44;5063565;28;20033;-57
2023/08/02 00:27:59;;;;;;;3.10;1.27;;;;;;;14.33;92.37;96392.03;5063547;28;20036;-57
2023/08/02 00:30:26;;;;;;;3.17;1.90;;;;;;;14.38;92.07;96391.91;5061506;28;20493;-57
2023/08/02 00:32:52;;;;;;;4.38;1.52;;;;;;;14.49;91.39;96382.44;5063086;28;20646;-56
2023/08/02 00:35:19;;;;;;;3.75;1.40;;;;;;;14.40;92.50;96378.78;5062626;28;20085;-58
2023/08/02 00:37:46;;;;;;;4.82;1.42;;;;;;;14.35;93.44;96371.56;5063484;28;20040;-57
2023/08/02 00:40:13;;;;;;;6.03;1.30;;;;;;;14.28;93.75;96365.69;5063330;28;20403;-57
2023/08/02 00:42:39;;;;;;;3.35;1.20;;;;;;;14.24;93.89;96351.88;5064977;28;20047;-57
2023/08/02 00:45:23;;;;;;;4.18;1.50;;;;;;;14.16;94.77;96355.28;5060829;28;20503;-56
2023/08/02 00:47:50;;;;;;;4.72;1.17;;;;;;;14.17;94.29;96344.09;5061983;28;20044;-57
2023/08/02 00:50:21;;;;;;;5.32;1.73;;;;;;;14.16;93.93;96347.13;5061717;28;20048;-57
2023/08/02 00:52:47;;;;;;;3.83;1.60;;;;;;;13.99;95.50;96343.06;5060632;28;20614;-57
2023/08/02 00:55:14;;;;;;;3.97;1.30;;;;;;;13.99;95.35;96347.69;5062188;28;20037;-55
2023/08/02 00:57:40;;;;;;;3.30;1.40;;;;;;;13.98;95.25;96338.72;5064108;28;20051;-57
2023/08/02 01:00:08;;;;;;;8.02;1.95;;;;;;;14.13;94.19;96345.81;5063038;28;20060;-57
2023/08/02 01:02:35;;;;;;;3.33;1.38;;;;;;;14.24;93.38;96351.06;5061941;28;20544;-56
2023/08/02 01:05:03;;;;;;;4.97;1.63;;;;;;;14.15;94.01;96351.75;5060559;28;20047;-57
2023/08/02 01:07:40;;;;;;;2.78;1.20;;;;;;;13.85;95.90;96353.09;5052293;28;20036;-57
2023/08/02 01:10:12;;;;;;;3.58;1.35;;;;;;;13.87;96.19;96356.34;5060510;28;20044;-57
2023/08/02 01:12:44;;;;;;;4.35;1.52;;;;;;;13.94;95.13;96356.75;5061840;28;20496;-56
2023/08/02 01:15:14;;;;;;;3.53;1.60;;;;;;;14.12;93.91;96349.63;5060750;28;20655;-57
2023/08/02 01:17:44;;;;;;;6.70;1.58;;;;;;;14.28;93.41;96335.72;5061013;28;20036;-56
2023/08/02 01:20:11;;;;;;;5.57;1.40;;;;;;;14.24;93.09;96326.56;5061986;28;20690;-57
2023/08/02 01:22:37;;;;;;;4.55;1.40;;;;;;;14.14;93.85;96317.47;5062497;28;20049;-56
2023/08/02 01:25:05;;;;;;;4.63;1.50;;;;;;;14.04;95.18;96317.66;5062410;28;20049;-56
2023/08/02 01:27:41;;;;;;;3.65;1.48;;;;;;;14.05;96.42;96322.00;5062007;28;20028;-57
2023/08/02 01:30:13;;;;;;;3.63;1.58;;;;;;;13.94;95.38;96315.13;5061709;28;20507;-58
2023/08/02 01:32:40;;;;;;;5.72;1.80;;;;;;;13.86;97.49;96311.19;5061324;28;20041;-57
2023/08/02 01:35:08;;;;;;;4.70;1.40;;;;;;;13.71;97.03;96307.63;5061767;28;20066;-57
2023/08/02 01:37:35;;;;;;;3.28;1.38;;;;;;;13.52;100.00;96313.09;5047085;28;20736;-58
2023/08/02 01:40:04;;;;;;;3.42;1.30;;;;;;;13.67;98.32;96314.75;5061156;28;20110;-55
2023/08/02 01:42:30;;;;;;;5.68;1.60;;;;;;;13.85;97.32;96304.94;5059229;28;20505;-56
2023/08/02 01:44:57;;;;;;;3.45;1.30;;;;;;;13.93;97.59;96313.53;5061790;28;20552;-56
2023/08/02 01:47:23;;;;;;;6.43;1.60;;;;;;;14.02;97.29;96315.25;5062179;28;20044;-56
2023/08/02 01:49:50;;;;;;;4.88;1.80;;;;;;;14.09;97.36;96309.41;5061327;28;20051;-55
2023/08/02 01:52:17;;;;;;;5.63;2.03;;;;;;;14.26;97.03;96308.03;5061755;28;20099;-55
2023/08/02 01:54:43;;;;;;;4.63;1.35;;;;;;;14.31;97.20;96297.81;5061023;28;20131;-56
2023/08/02 01:57:10;;;;;;;3.90;1.38;;;;;;;14.44;96.81;96320.72;5058445;28;20086;-55
2023/08/02 01:59:36;;;;;;;4.03;1.30;;;;;;;14.48;96.54;96315.47;5060449;28;20036;-55
2023/08/02 02:02:03;;;;;;;4.70;1.50;;;;;;;14.56;96.31;96301.13;5060859;28;20044;-55
2023/08/02 02:04:30;;;;;;;3.88;1.70;;;;;;;14.60;96.07;96295.91;5059160;28;20041;-55
2023/08/02 02:06:56;;;;;;;5.00;1.40;;;;;;;14.63;96.55;96275.41;5060222;28;20044;-55
2023/08/02 02:09:23;;;;;;;2.25;1.20;;;;;;;14.63;96.70;96270.75;5060795;28;20040;-53
2023/08/02 02:11:50;;;;;;;4.30;1.50;;;;;;;14.65;96.32;96265.81;5059656;28;20102;-56
2023/08/02 02:14:16;;;;;;;3.60;1.40;;;;;;;14.74;96.08;96259.63;5060325;28;20048;-56
2023/08/02 02:16:43;;;;;;;3.15;1.30;;;;;;;14.79;95.85;96278.63;5062191;28;20044;-56
2023/08/02 02:19:10;;;;;;;3.47;1.67;;;;;;;14.87;94.93;96285.25;5060882;28;20640;-56
2023/08/02 02:21:36;;;;;;;5.03;1.60;;;;;;;14.89;95.06;96278.38;5063009;28;20039;-56
2023/08/02 02:24:03;;;;;;;3.30;1.33;;;;;;;14.94;94.64;96272.84;5065143;28;20511;-57
2023/08/02 02:26:30;;;;;;;5.05;1.48;;;;;;;14.90;94.92;96269.13;5065692;28;20059;-57
2023/08/02 02:28:56;;;;;;;3.00;1.30;;;;;;;14.85;95.19;96262.97;5063702;28;20561;-57
2023/08/02 02:31:23;;;;;;;4.00;1.42;;;;;;;14.82;95.48;96251.56;5063222;28;20653;-57
2023/08/02 02:33:50;;;;;;;4.13;1.63;;;;;;;14.78;95.83;96247.84;5064584;28;20747;-57
2023/08/02 02:36:17;;;;;;;2.30;1.23;;;;;;;14.80;95.35;96245.63;5065355;28;20048;-57
2023/08/02 02:38:43;;;;;;;4.63;1.58;;;;;;;14.76;95.63;96247.34;5064643;28;20774;-57
2023/08/02 02:41:10;;;;;;;4.63;1.58;;;;;;;14.76;95.85;96244.63;5064806;28;20040;-57
2023/08/02 02:43:36;;;;;;;4.13;1.30;;;;;;;14.81;95.56;96255.41;5065843;28;20052;-55
2023/08/02 02:46:02;;;;;;;5.47;1.55;;;;;;;14.88;94.76;96246.00;5065204;28;20037;-57
2023/08/02 02:48:29;;;;;;;3.08;1.25;;;;;;;14.94;94.28;96247.50;5066644;28;20055;-55
2023/08/02 02:50:55;;;;;;;5.18;1.38;;;;;;;14.93;93.61;96252.13;5064495;28;20040;-55
2023/08/02 02:53:23;;;;;;;3.65;1.50;;;;;;;14.94;94.32;96239.31;5063170;28;20033;-55
2023/08/02 02:55:51;;;;;;;3.00;1.45;;;;;;;14.97;93.55;96243.34;5064871;28;20115;-55
2023/08/02 02:58:18;;;;;;;5.47;1.40;;;;;;;15.02;93.32;96232.31;5064624;28;20059;-57
2023/08/02 03:00:44;;;;;;;4.60;1.50;;;;;;;15.02;92.90;96235.84;5063985;28;20052;-57
2023/08/02 03:03:11;;;;;;;5.25;1.42;;;;;;;14.93;93.27;96224.88;5062211;28;20043;-57
2023/08/02 03:05:38;;;;;;;5.82;1.50;;;;;;;14.90;93.58;96224.69;5064627;28;20036;-57
2023/08/02 03:08:05;;;;;;;6.70;1.40;;;;;;;14.85;93.84;96216.66;5063069;28;20037;-57
2023/08/02 03:10:31;;;;;;;3.47;1.63;;;;;;;14.83;93.87;96219.69;5064608;28;20052;-56
2023/08/02 03:12:58;;;;;;;3.83;1.58;;;;;;;14.85;93.17;96211.97;5064383;28;20047;-57
2023/08/02 03:15:24;;;;;;;5.00;1.60;;;;;;;14.84;93.47;96207.66;5064860;28;20055;-56
2023/08/02 03:17:51;;;;;;;2.83;1.25;;;;;;;14.88;93.49;96208.66;5063023;28;20044;-57
2023/08/02 03:20:18;;;;;;;3.13;1.33;;;;;;;14.98;91.77;96199.44;5064414;28;20724;-57
2023/08/02 03:22:44;;;;;;;3.90;1.13;;;;;;;14.94;92.34;96204.72;5064696;28;20040;-56
2023/08/02 03:25:11;;;;;;;4.75;1.77;;;;;;;14.93;91.97;96202.28;5063510;28;20029;-57
2023/08/02 03:27:37;;;;;;;3.13;1.48;;;;;;;14.82;92.66;96207.97;5065089;28;20059;-57
2023/08/02 03:30:04;;;;;;;2.80;1.40;;;;;;;14.94;91.35;96199.25;5064849;28;20044;-58
2023/08/02 03:32:31;;;;;;;5.95;2.05;;;;;;;14.98;90.79;96195.88;5064679;28;20063;-57
2023/08/02 03:34:58;;;;;;;4.60;1.73;;;;;;;14.96;90.95;96196.19;5060481;28;20515;-57
2023/08/02 03:37:24;;;;;;;4.88;1.58;;;;;;;15.02;89.34;96191.44;5061445;28;20115;-57
2023/08/02 03:39:50;;;;;;;2.90;1.42;;;;;;;14.94;89.88;96182.91;5063808;28;20056;-57
2023/08/02 03:42:17;;;;;;;2.85;1.17;;;;;;;15.03;89.99;96185.66;5063942;28;20044;-55
2023/08/02 03:44:43;;;;;;;4.55;1.25;;;;;;;14.97;90.56;96178.75;5064513;28;20045;-57
2023/08/02 03:47:10;;;;;;;3.03;1.30;;;;;;;15.00;90.06;96166.41;5063697;28;20454;-58
2023/08/02 03:49:37;;;;;;;3.45;1.30;;;;;;;15.01;89.61;96168.03;5061519;28;20048;-57
2023/08/02 03:52:03;;;;;;;6.53;1.55;;;;;;;14.91;90.10;96161.72;5065728;28;20032;-57
2023/08/02 03:54:30;;;;;;;6.25;1.48;;;;;;;15.00;89.71;96158.25;5062691;28;20048;-57
2023/08/02 03:56:56;;;;;;;3.25;1.30;;;;;;;15.04;89.20;96149.13;5064601;28;20041;-57
2023/08/02 03:59:23;;;;;;;3.35;1.30;;;;;;;15.04;89.23;96138.22;5064300;28;20040;-57
2023/08/02 04:01:49;;;;;;;3.22;1.27;;;;;;;14.96;89.50;96136.22;5063855;28;20048;-57
2023/08/02 04:04:16;;;;;;;3.78;1.38;;;;;;;14.92;89.86;96141.50;5062808;28;20044;-57
2023/08/02 04:06:43;;;;;;;4.75;1.70;;;;;;;14.90;89.96;96134.75;5061519;28;20139;-57
2023/08/02 04:09:10;;;;;;;6.93;1.40;;;;;;;14.89;90.59;96135.88;5064432;28;20601;-57
2023/08/02 04:11:36;;;;;;;4.68;1.90;;;;;;;14.89;91.52;96133.94;5063867;28;20055;-57
2023/08/02 04:14:03;;;;;;;4.75;1.63;;;;;;;15.01;91.20;96133.41;5063496;28;20431;-56
2023/08/02 04:16:29;;;;;;;3.15;1.38;;;;;;;14.97;93.20;96134.31;5063307;28;20059;-55
2023/08/02 04:18:56;;;;;;;5.40;1.67;;;;;;;14.82;96.81;96122.69;5064152;28;20051;-57
2023/08/02 04:21:22;;;;;;;3.88;1.70;;;;;;;14.72;96.56;96115.53;5062965;28;20449;-56
2023/08/02 04:23:50;;;;;;;4.85;1.55;;;;;;;14.66;99.79;96108.59;5063876;28;20055;-56
2023/08/02 04:26:17;;;;;;;2.65;1.10;;;;;;;14.67;100.00;96102.84;5061555;28;20039;-57
2023/08/02 04:28:47;;;;;;;3.90;1.52;;;;;;;14.53;98.88;96100.16;5064180;28;20044;-56
2023/08/02 04:31:14;;;;;;;4.95;1.80;;;;;;;14.61;98.85;96101.38;5061298;28;20067;-57
2023/08/02 04:33:41;;;;;;;3.53;1.73;;;;;;;14.57;100.00;96090.28;5062521;28;20073;-56
2023/08/02 04:36:07;;;;;;;7.75;1.83;;;;;;;14.62;100.00;96100.25;5061429;28;20037;-57
2023/08/02 04:38:34;;;;;;;4.45;1.65;;;;;;;14.56;100.00;96098.78;5061628;28;20372;-57
2023/08/02 04:41:00;;;;;;;7.88;1.95;;;;;;;14.56;100.00;96085.16;5060358;28;20056;-57
2023/08/02 04:43:27;;;;;;;4.50;1.77;;;;;;;14.60;100.00;96090.78;5061318;28;20135;-57
2023/08/02 04:45:53;;;;;;;5.78;1.95;;;;;;;14.49;100.00;96082.06;5061070;28;20048;-56
2023/08/02 04:48:20;;;;;;;4.95;1.60;;;;;;;14.46;100.00;96074.50;5060717;28;20047;-54
2023/08/02 04:50:46;;;;;;;3.80;1.45;;;;;;;14.40;100.00;96066.47;5061002;28;20117;-55
2023/08/02 04:53:13;;;;;;;5.43;2.22;;;;;;;14.28;100.00;96066.19;5024928;28;20610;-55
2023/08/02 04:55:41;;;;;;;4.72;2.13;;;;;;;14.30;100.00;96074.88;5057144;28;20136;-55
2023/08/02 04:58:08;;;;;;;6.53;1.98;;;;;;;14.13;100.00;96079.06;5061332;28;20041;-55
2023/08/02 05:00:35;;;;;;;4.82;1.98;;;;;;;14.27;100.00;96075.50;5060480;28;20045;-55
2023/08/02 05:03:01;;;;;;;4.18;1.80;;;;;;;14.24;100.00;96081.53;5060263;28;20064;-56
2023/08/02 05:05:28;;;;;;;4.95;2.00;;;;;;;14.17;100.00;96081.97;5059296;28;20049;-55
2023/08/02 05:07:54;;;;;;;5.25;2.10;;;;;;;14.19;100.00;96082.44;5064412;28;20052;-55
2023/08/02 05:10:21;;;;;;;4.13;1.67;;;;;;;14.07;100.00;96080.28;5060853;28;20110;-57
2023/08/02 05:12:47;;;;;;;4.93;2.08;;;;;;;14.02;100.00;96078.50;5061302;28;20052;-56
2023/08/02 05:15:14;;;;;;;5.72;2.05;;;;;;;13.95;100.00;96077.28;5059143;28;20040;-54
2023/08/02 05:17:40;;;;;;;4.90;2.00;;;;;;;13.92;100.00;96067.81;5060991;28;20056;-57
2023/08/02 05:20:07;;;;;;;5.65;2.17;;;;;;;13.99;100.00;96078.28;5060868;28;20125;-52
2023/08/02 05:22:34;;;;;;;5.72;2.10;;;;;;;14.03;100.00;96077.38;5062129;28;20113;-57
2023/08/02 05:25:00;;;;;;;5.50;1.77;;;;;;;14.10;100.00;96074.22;5060535;28;20072;-55
2023/08/02 05:27:27;;;;;;;7.03;2.17;;;;;;;14.08;100.00;96065.53;5060306;28;20040;-56
2023/08/02 05:29:53;;;;;;;5.78;2.08;;;;;;;14.10;100.00;96063.34;5061699;28;20044;-56
2023/08/02 05:32:20;;;;;;;4.70;2.20;;;;;;;14.00;100.00;96066.28;5059102;28;20040;-55
2023/08/02 05:34:46;;;;;;;6.30;2.20;;;;;;;13.88;100.00;96059.47;5058527;28;20611;-56
2023/08/02 05:37:13;;;;;;;4.63;2.05;;;;;;;13.90;100.00;96072.78;5060084;28;20410;-61
2023/08/02 05:39:39;;;;;;;4.13;2.10;;;;;;;13.88;100.00;96074.97;5058883;28;20057;-58
2023/08/02 05:42:06;;;;;;;6.00;2.20;;;;;;;13.97;100.00;96080.50;5061105;28;20041;-57
2023/08/02 05:44:36;;;;;;;5.72;2.30;;;;;;;14.02;100.00;96067.59;5059637;28;20072;-54
2023/08/02 05:47:03;;;;;;;5.28;2.50;;;;;;;13.90;100.00;96051.78;5059616;28;20033;-57
2023/08/02 05:49:29;;;;;;;5.65;2.10;;;;;;;13.86;100.00;96044.56;5060240;28;20044;-55
2023/08/02 05:51:56;;;;;;;6.30;2.33;;;;;;;13.93;100.00;96042.22;5063247;28;20048;-56
2023/08/02 05:54:22;;;;;;;3.45;1.80;;;;;;;13.86;100.00;96030.97;5059542;28;20044;-56
2023/08/02 05:56:49;;;;;;;3.95;2.17;;;;;;;13.88;100.00;96047.75;5060756;28;20051;-56
2023/08/02 05:59:15;;;;;;;6.45;2.47;;;;;;;13.85;100.00;96043.75;5065769;28;20048;-56
2023/08/02 06:01:41;;;;;;;6.22;2.50;;;;;;;13.75;100.00;96042.06;5067201;28;20048;-55
2023/08/02 06:04:08;;;;;;;4.68;2.45;;;;;;;13.75;100.00;96054.88;5067022;28;20068;-56
2023/08/02 06:06:35;;;;;;;4.55;2.35;;;;;;;13.71;100.00;96048.41;5066857;28;20040;-55
2023/08/02 06:09:04;;;;;;;9.13;2.70;;;;;;;13.79;100.00;96047.69;5066931;28;20045;-54
2023/08/02 06:11:34;;;;;;;7.15;3.38;;;;;;;13.76;100.00;96040.97;5066634;28;20049;-56
2023/08/02 06:14:00;;;;;;;5.45;2.72;;;;;;;13.84;100.00;96042.13;5066360;28;20045;-58
2023/08/02 06:16:27;;;;;;;7.00;2.88;;;;;;;13.97;100.00;96036.97;5066550;28;20044;-57
2023/08/02 06:18:53;;;;;;;5.22;2.45;;;;;;;13.96;100.00;96024.50;5066831;28;20045;-56
2023/08/02 06:21:20;;;;;;;6.70;2.50;;;;;;;13.95;100.00;96014.69;5065497;28;20253;-56
2023/08/02 06:23:46;;;;;;;4.15;2.55;;;;;;;13.87;100.00;96021.69;5066867;28;20047;-57
2023/08/02 06:26:13;;;;;;;6.55;3.28;;;;;;;13.89;100.00;96012.09;5067296;28;20042;-57
2023/08/02 06:28:39;;;;;;;5.10;2.75;;;;;;;13.96;100.00;96019.03;5067731;28;20131;-57
2023/08/02 06:31:06;;;;;;;4.55;2.58;;;;;;;13.96;100.00;96019.03;5064716;28;20055;-57
2023/08/02 06:33:33;;;;;;;7.38;2.78;;;;;;;13.93;100.00;96006.84;5065710;28;20165;-57
2023/08/02 06:35:59;;;;;;;5.65;2.83;;;;;;;14.04;100.00;96000.06;5066417;28;20075;-57
2023/08/02 06:38:26;;;;;;;7.53;3.30;;;;;;;14.10;100.00;95997.19;5065525;28;20059;-57
2023/08/02 06:40:52;;;;;;;5.72;2.92;;;;;;;14.16;100.00;95979.66;5065059;28;20057;-54
2023/08/02 06:43:19;;;;;;;5.63;2.88;;;;;;;14.26;100.00;95979.38;5066798;28;20043;-57
2023/08/02 06:45:46;;;;;;;9.52;3.38;;;;;;;14.40;100.00;95978.50;5066502;28;20110;-57
2023/08/02 06:48:19;;;;;;;5.50;2.67;;;;;;;14.51;100.00;95974.41;5067039;28;20445;-56
2023/08/02 06:50:45;;;;;;;5.90;2.78;;;;;;;14.42;100.00;95966.19;5069652;28;20058;-55
2023/08/02 06:53:12;;;;;;;5.07;2.92;;;;;;;14.48;100.00;95958.69;5067127;28;20036;-56
2023/08/02 06:55:39;;;;;;;7.07;3.00;;;;;;;14.49;100.00;95951.34;5065619;28;20052;-57
2023/08/02 06:58:05;;;;;;;5.78;3.13;;;;;;;14.31;100.00;95948.53;5067463;28;20519;-56
2023/08/02 07:00:35;;;;;;;6.07;3.35;;;;;;;14.36;100.00;95956.56;5068814;28;20028;-54
2023/08/02 07:03:03;;;;;;;7.55;2.80;;;;;;;14.38;100.00;95959.75;5068348;28;20460;-56
2023/08/02 07:05:30;;;;;;;6.57;3.20;;;;;;;14.46;100.00;95955.50;5068363;28;20101;-56
2023/08/02 07:07:57;;;;;;;5.45;3.22;;;;;;;14.52;100.00;95956.16;5065762;28;20037;-56
2023/08/02 07:10:25;;;;;;;6.38;3.70;;;;;;;14.55;100.00;95956.34;5065233;28;20496;-55
2023/08/02 07:12:52;;;;;;;7.85;3.67;;;;;;;14.63;100.00;95946.59;5065511;28;20044;-56
2023/08/02 07:15:19;;;;;;;8.20;3.47;;;;;;;14.81;100.00;95941.25;5064354;28;20059;-56
2023/08/02 07:17:47;;;;;;;5.75;3.40;;;;;;;14.95;100.00;95930.22;5065586;28;20048;-56
2023/08/02 07:20:18;;;;;;;6.43;3.28;;;;;;;15.04;100.00;95930.28;5064757;28;20485;-54
2023/08/02 07:22:45;;;;;;;6.10;3.28;;;;;;;15.12;100.00;95909.59;5063724;28;20052;-59
2023/08/02 07:25:11;;;;;;;5.40;2.97;;;;;;;15.11;100.00;95910.72;5064924;28;20048;-57
2023/08/02 07:27:38;;;;;;;6.65;3.38;;;;;;;15.04;100.00;95913.91;5064697;28;20156;-57
2023/08/02 07:30:05;;;;;;;7.50;3.92;;;;;;;15.08;100.00;95901.25;5065327;28;20068;-57
2023/08/02 07:32:31;;;;;;;6.75;3.50;;;;;;;15.12;100.00;95899.50;5064907;28;20037;-57
2023/08/02 07:34:58;;;;;;;6.53;3.45;;;;;;;15.25;100.00;95899.69;5066619;28;20469;-54
2023/08/02 07:37:25;;;;;;;7.57;3.30;;;;;;;15.17;100.00;95890.34;5062104;28;20043;-57
2023/08/02 07:39:52;;;;;;;7.43;3.72;;;;;;;15.44;100.00;95892.00;5065422;28;20044;-56
2023/08/02 07:42:19;;;;;;;6.55;3.40;;;;;;;15.36;100.00;95894.72;5065666;28;20040;-57
2023/08/02 07:45:06;;;;;;;7.45;3.80;;;;;;;15.40;100.00;95891.03;5065082;28;20048;-55
2023/08/02 07:47:34;;;;;;;4.93;3.08;;;;;;;15.33;100.00;95890.69;5064897;28;20044;-57
2023/08/02 07:50:01;;;;;;;8.07;4.20;;;;;;;15.46;100.00;95892.47;5044240;28;20048;-57
2023/08/02 07:52:28;;;;;;;7.35;4.28;;;;;;;15.36;100.00;95884.59;5057165;28;20053;-55
2023/08/02 07:54:55;;;;;;;6.18;3.53;;;;;;;15.43;100.00;95893.13;5064690;28;20503;-57
2023/08/02 07:57:25;;;;;;;7.53;4.18;;;;;;;15.20;100.00;95884.28;5064390;28;20052;-57
2023/08/02 07:59:52;;;;;;;6.78;4.07;;;;;;;15.23;100.00;95891.00;5064524;28;20507;-57
2023/08/02 08:02:20;;;;;;;7.57;4.13;;;;;;;15.29;100.00;95878.84;5064331;28;20148;-58
2023/08/02 08:04:46;;;;;;;7.07;4.30;;;;;;;15.37;100.00;95867.09;5064877;28;20040;-58
2023/08/02 08:07:13;;;;;;;6.88;4.10;;;;;;;15.30;100.00;95859.41;5064516;28;20043;-58
2023/08/02 08:09:39;;;;;;;9.45;4.43;;;;;;;15.26;100.00;95863.13;5063952;28;20041;-57
2023/08/02 08:12:06;;;;;;;7.30;4.10;;;;;;;15.28;100.00;95869.03;5061790;28;20047;-57
2023/08/02 08:14:33;;;;;;;6.78;3.60;;;;;;;15.40;100.00;95866.47;5064061;28;20118;-57
2023/08/02 08:17:01;;;;;;;6.65;4.05;;;;;;;15.42;100.00;95856.06;5064182;28;20048;-57
2023/08/02 08:19:28;;;;;;;7.32;4.80;;;;;;;15.49;100.00;95850.13;5063914;28;20111;-57
2023/08/02 08:21:55;;;;;;;7.03;4.25;;;;;;;15.52;100.00;95835.03;5064251;28;20050;-57
2023/08/02 08:24:22;;;;;;;8.43;4.40;;;;;;;15.55;100.00;95846.09;5062547;28;20054;-58
2023/08/02 08:26:50;;;;;;;7.70;4.38;;;;;;;15.50;100.00;95842.72;5063529;28;20048;-57
2023/08/02 08:29:17;;;;;;;6.93;4.60;;;;;;;15.60;100.00;95845.16;5063556;28;20650;-58
2023/08/02 08:31:43;;;;;;;7.03;4.38;;;;;;;15.77;100.00;95844.31;5064181;28;20052;-57
2023/08/02 08:34:11;;;;;;;7.10;4.10;;;;;;;15.82;100.00;95835.94;5063531;28;20045;-56
2023/08/02 08:36:37;;;;;;;7.32;4.18;;;;;;;15.86;100.00;95822.47;5064753;28;20067;-58
2023/08/02 08:39:04;;;;;;;6.90;4.20;;;;;;;15.96;100.00;95810.44;5063118;28;20051;-57
2023/08/02 08:41:30;;;;;;;8.02;4.43;;;;;;;15.90;100.00;95826.16;5064794;28;20036;-58
2023/08/02 08:44:00;;;;;;;9.40;4.28;;;;;;;15.84;100.00;95835.63;5063191;28;20040;-58
2023/08/02 08:46:34;;;;;;;6.03;3.72;;;;;;;15.83;100.00;95826.66;5063826;28;20060;-56
2023/08/02 08:49:02;;;;;;;6.30;4.13;;;;;;;15.82;100.00;95819.56;5064962;28;20044;-57
2023/08/02 08:51:33;;;;;;;6.60;3.90;;;;;;;15.77;100.00;95830.66;5063467;28;20052;-57
2023/08/02 08:54:08;;;;;;;6.38;3.67;;;;;;;15.79;100.00;95820.25;5064117;28;20162;-58
2023/08/02 08:56:40;;;;;;;6.38;4.00;;;;;;;15.86;100.00;95820.53;5065232;28;20067;-58
2023/08/02 08:59:08;;;;;;;7.88;4.80;;;;;;;15.83;100.00;95820.38;5065119;28;20101;-57
2023/08/02 09:01:37;;;;;;;6.47;3.92;;;;;;;15.93;100.00;95828.25;5065473;28;20692;-57
2023/08/02 09:04:04;;;;;;;7.32;3.78;;;;;;;15.98;100.00;95822.63;5063268;28;20121;-58
2023/08/02 09:06:31;;;;;;;6.32;3.42;;;;;;;15.99;100.00;95810.56;5062331;28;20048;-58
2023/08/02 09:08:58;;;;;;;6.47;3.35;;;;;;;16.12;100.00;95807.97;5062683;28;20037;-57
2023/08/02 09:11:25;;;;;;;5.78;3.30;;;;;;;16.13;100.00;95798.66;5061668;28;20535;-55
2023/08/02 09:14:14;;;;;;;5.20;2.78;;;;;;;16.20;100.00;95792.69;5061867;28;20052;-57
2023/08/02 09:17:04;;;;;;;5.32;3.17;;;;;;;16.32;100.00;95786.50;5062445;28;20525;-57
2023/08/02 09:19:32;;;;;;;5.93;3.05;;;;;;;16.34;100.00;95782.34;5062239;28;20130;-57
2023/08/02 09:22:11;;;;;;;4.43;2.58;;;;;;;16.36;100.00;95788.28;5061815;28;20045;-57
2023/08/02 09:24:39;;;;;;;5.85;3.10;;;;;;;16.36;100.00;95774.63;5062481;28;20054;-57
2023/08/02 09:27:10;;;;;;;5.13;2.90;;;;;;;16.46;100.00;95786.28;5061995;28;20051;-57
2023/08/02 09:29:50;;;;;;;4.32;2.60;;;;;;;16.52;100.00;95788.50;5062440;28;20036;-56
2023/08/02 09:32:19;;;;;;;5.57;3.10;;;;;;;16.57;100.00;95786.72;5059813;28;20037;-57
2023/08/02 09:34:49;;;;;;;6.15;3.40;;;;;;;16.62;100.00;95781.09;5060459;28;20045;-57
2023/08/02 09:37:26;;;;;;;6.28;3.17;;;;;;;16.72;100.00;95766.22;5060187;28;20123;-57
2023/08/02 09:39:53;;;;;;;5.70;3.05;;;;;;;16.82;100.00;95770.50;5061710;28;20048;-58
2023/08/02 09:42:25;;;;;;;6.95;3.00;;;;;;;16.86;100.00;95765.97;5062122;28;20044;-57
2023/08/02 09:44:58;;;;;;;4.65;2.85;;;;;;;17.05;100.00;95760.06;5062142;28;20049;-58
2023/08/02 09:47:27;;;;;;;5.53;3.28;;;;;;;17.15;100.00;95764.31;5063570;28;20036;-57
2023/08/02 09:50:07;;;;;;;6.82;2.90;;;;;;;17.15;100.00;95756.91;5062281;28;20660;-57
2023/08/02 09:52:36;;;;;;;5.90;3.53;;;;;;;17.17;100.00;95762.03;5061458;28;20044;-57
2023/08/02 09:55:03;;;;;;;5.40;3.33;;;;;;;17.13;100.00;95744.69;5062148;28;20788;-57
2023/08/02 09:57:31;;;;;;;5.75;2.78;;;;;;;17.27;100.00;95745.25;5064284;28;20148;-57
2023/08/02 10:00:04;;;;;;;5.85;3.17;;;;;;;17.44;100.00;95743.47;5062926;28;20044;-58
2023/08/02 10:02:37;;;;;;;5.15;3.25;;;;;;;17.55;100.00;95741.13;5062452;28;20052;-56
2023/08/02 10:05:07;;;;;;;6.40;3.00;;;;;;;17.81;100.00;95723.59;5061808;28;20154;-55
2023/08/02 10:07:47;;;;;;;7.32;2.95;;;;;;;17.86;100.00;95711.63;5061058;28;20047;-58
2023/08/02 10:10:25;;;;;;;6.25;3.13;;;;;;;17.88;100.00;95714.84;5062627;28;20120;-56
2023/08/02 10:13:08;;;;;;;5.25;2.63;;;;;;;17.62;100.00;95716.72;5061138;28;20044;-58
2023/08/02 10:15:40;;;;;;;4.78;2.55;;;;;;;17.74;100.00;95715.16;5061842;28;20567;-58
2023/08/02 10:18:08;;;;;;;6.97;3.22;;;;;;;17.71;100.00;95713.09;5059334;28;20471;-58
2023/08/02 10:20:36;;;;;;;5.25;2.53;;;;;;;17.78;100.00;95707.84;5065346;28;20044;-58
2023/08/02 10:23:04;;;;;;;6.82;3.00;;;;;;;18.00;100.00;95703.09;5062911;28;20100;-58
2023/08/02 10:25:35;;;;;;;9.27;3.28;;;;;;;18.07;100.00;95703.31;5058344;28;20044;-57
2023/08/02 10:28:02;;;;;;;6.32;2.60;;;;;;;17.86;100.00;95706.16;5061781;28;20032;-58
2023/08/02 10:30:30;;;;;;;6.07;2.58;;;;;;;17.84;100.00;95702.97;5059906;28;20104;-58
2023/08/02 10:33:10;;;;;;;4.65;2.55;;;;;;;17.78;100.00;95680.47;5061513;28;20059;-58
2023/08/02 10:36:03;;;;;;;4.28;2.35;;;;;;;17.65;100.00;95696.06;5059762;28;20041;-58
2023/08/02 10:38:39;;;;;;;4.97;2.40;;;;;;;17.62;100.00;95688.56;5059011;28;20120;-58
2023/08/02 10:41:08;;;;;;;4.95;2.58;;;;;;;17.55;100.00;95694.59;5061350;28;20068;-58
2023/08/02 10:43:53;;;;;;;5.35;2.83;;;;;;;17.36;100.00;95693.16;5063393;28;20044;-57
2023/08/02 10:46:27;;;;;;;6.45;3.03;;;;;;;17.45;100.00;95689.53;5065827;28;20145;-58
2023/08/02 10:48:56;;;;;;;8.13;2.97;;;;;;;17.49;100.00;95685.81;5065446;28;20048;-58
2023/08/02 10:51:33;;;;;;;5.15;2.90;;;;;;;17.58;100.00;95666.53;5064597;28;20044;-57
2023/08/02 10:54:23;;;;;;;6.43;2.95;;;;;;;17.67;100.00;95670.00;5064403;28;20517;-58
2023/08/02 10:56:52;;;;;;;5.47;3.08;;;;;;;17.75;100.00;95664.72;5065139;28;20131;-57
2023/08/02 10:59:22;;;;;;;6.18;2.85;;;;;;;17.71;100.00;95656.41;5064950;28;20040;-58
2023/08/02 11:02:08;;;;;;;4.53;2.50;;;;;;;17.73;100.00;95654.13;5064976;28;21021;-58
2023/08/02 11:04:39;;;;;;;7.40;3.03;;;;;;;17.82;100.00;95654.03;5065527;28;20048;-57
2023/08/02 11:07:18;;;;;;;6.53;2.70;;;;;;;17.84;100.00;95656.44;5053216;28;20442;-57
2023/08/02 11:09:45;;;;;;;6.65;3.05;;;;;;;17.94;100.00;95653.22;5030241;28;20072;-58
2023/08/02 11:12:17;;;;;;;7.22;3.58;;;;;;;18.04;100.00;95649.22;5056327;28;20064;-57
2023/08/02 11:14:46;;;;;;;7.40;3.38;;;;;;;17.99;100.00;95653.00;5064022;28;20549;-57
2023/08/02 11:17:23;;;;;;;5.97;2.92;;;;;;;18.04;100.00;95649.22;5065292;28;20044;-58
2023/08/02 11:19:54;;;;;;;5.05;2.95;;;;;;;18.22;100.00;95641.59;5063168;28;20036;-58
2023/08/02 11:22:23;;;;;;;5.40;3.22;;;;;;;18.32;100.00;95632.91;5062424;28;20052;-58
2023/08/02 11:24:52;;;;;;;6.30;3.60;;;;;;;18.42;100.00;95630.81;5063492;28;20055;-57
2023/08/02 11:27:21;;;;;;;7.07;3.10;;;;;;;18.62;100.00;95631.81;5063067;28;20036;-58
2023/08/02 11:30:03;;;;;;;5.50;2.80;;;;;;;18.58;100.00;95634.44;5063685;28;20361;-57
2023/08/02 11:32:30;;;;;;;6.10;2.90;;;;;;;18.67;100.00;95626.09;5063369;28;20045;-58
2023/08/02 11:34:57;;;;;;;6.03;3.05;;;;;;;18.64;100.00;95620.50;5061499;28;20094;-57